sensor_id;sensor_type;location;lat;lon;timestamp;P1;durP1;ratioP1;P2;durP2;ratioP2
25567;SDS011;13455;51.480;7.594;2023-05-07T00:01:55;8.20;;;5.40;;
25567;SDS011;13455;51.480;7.594;2023-05-07T00:04:21;8.50;;;6.10;;
25567;SDS011;13455;51.480;7.594;2023-05-07T00:06:46;9.03;;;6.47;;
25567;SDS011;13455;51.480;7.594;2023-05-07T00:09:12;8.17;;;6.37;;
25567;SDS011;13455;51.480;7.594;2023-05-07T00:11:37;9.60;;;6.30;;
25567;SDS011;13455;51.480;7.594;2023-05-07T00:14:03;10.02;;;7.00;;
25567;SDS011;13455;51.480;7.594;2023-05-07T00:16:29;9.35;;;6.78;;
25567;SDS011;13455;51.480;7.594;2023-05-07T00:18:55;8.65;;;6.50;;
25567;SDS011;13455;51.480;7.594;2023-05-07T00:21:20;9.27;;;6.47;;
25567;SDS011;13455;51.480;7.594;2023-05-07T00:23:46;8.50;;;6.37;;
25567;SDS011;13455;51.480;7.594;2023-05-07T00:26:12;9.33;;;6.53;;
25567;SDS011;13455;51.480;7.594;2023-05-07T00:28:38;9.03;;;6.70;;
25567;SDS011;13455;51.480;7.594;2023-05-07T00:31:04;8.98;;;6.53;;
25567;SDS011;13455;51.480;7.594;2023-05-07T00:33:29;8.97;;;6.50;;
25567;SDS011;13455;51.480;7.594;2023-05-07T00:35:55;9.90;;;6.97;;
25567;SDS011;13455;51.480;7.594;2023-05-07T00:38:21;8.20;;;6.55;;
25567;SDS011;13455;51.480;7.594;2023-05-07T00:40:46;8.88;;;6.07;;
25567;SDS011;13455;51.480;7.594;2023-05-07T00:43:12;8.40;;;6.20;;
25567;SDS011;13455;51.480;7.594;2023-05-07T00:45:37;9.07;;;6.00;;
25567;SDS011;13455;51.480;7.594;2023-05-07T00:48:03;8.43;;;5.25;;
25567;SDS011;13455;51.480;7.594;2023-05-07T00:50:29;7.72;;;4.95;;
25567;SDS011;13455;51.480;7.594;2023-05-07T00:52:56;7.47;;;4.90;;
25567;SDS011;13455;51.480;7.594;2023-05-07T00:55:22;8.85;;;5.00;;
25567;SDS011;13455;51.480;7.594;2023-05-07T00:57:49;6.90;;;4.82;;
25567;SDS011;13455;51.480;7.594;2023-05-07T01:00:16;9.27;;;4.80;;
25567;SDS011;13455;51.480;7.594;2023-05-07T01:02:43;8.60;;;4.77;;
25567;SDS011;13455;51.480;7.594;2023-05-07T01:05:09;6.93;;;4.43;;
25567;SDS011;13455;51.480;7.594;2023-05-07T01:07:37;6.70;;;4.20;;
25567;SDS011;13455;51.480;7.594;2023-05-07T01:10:05;6.15;;;3.80;;
25567;SDS011;13455;51.480;7.594;2023-05-07T01:12:32;6.72;;;4.20;;
25567;SDS011;13455;51.480;7.594;2023-05-07T01:14:59;7.65;;;4.00;;
25567;SDS011;13455;51.480;7.594;2023-05-07T01:17:25;5.93;;;3.85;;
25567;SDS011;13455;51.480;7.594;2023-05-07T01:19:50;5.35;;;3.70;;
25567;SDS011;13455;51.480;7.594;2023-05-07T01:22:22;6.25;;;3.80;;
25567;SDS011;13455;51.480;7.594;2023-05-07T01:24:58;6.73;;;4.17;;
25567;SDS011;13455;51.480;7.594;2023-05-07T01:27:25;6.93;;;4.10;;
25567;SDS011;13455;51.480;7.594;2023-05-07T01:29:50;5.57;;;3.97;;
25567;SDS011;13455;51.480;7.594;2023-05-07T01:32:16;6.17;;;3.87;;
25567;SDS011;13455;51.480;7.594;2023-05-07T01:34:46;5.87;;;3.77;;
25567;SDS011;13455;51.480;7.594;2023-05-07T01:37:14;6.20;;;3.60;;
25567;SDS011;13455;51.480;7.594;2023-05-07T01:39:40;6.00;;;3.58;;
25567;SDS011;13455;51.480;7.594;2023-05-07T01:42:07;6.90;;;3.60;;
25567;SDS011;13455;51.480;7.594;2023-05-07T01:44:32;5.15;;;3.40;;
25567;SDS011;13455;51.480;7.594;2023-05-07T01:46:58;5.63;;;3.90;;
25567;SDS011;13455;51.480;7.594;2023-05-07T01:49:24;5.85;;;3.92;;
25567;SDS011;13455;51.480;7.594;2023-05-07T01:51:51;5.85;;;4.07;;
25567;SDS011;13455;51.480;7.594;2023-05-07T01:54:17;8.55;;;4.13;;
25567;SDS011;13455;51.480;7.594;2023-05-07T01:56:42;9.33;;;4.40;;
25567;SDS011;13455;51.480;7.594;2023-05-07T01:59:08;5.67;;;4.23;;
25567;SDS011;13455;51.480;7.594;2023-05-07T02:01:34;6.35;;;4.45;;
25567;SDS011;13455;51.480;7.594;2023-05-07T02:03:59;6.35;;;4.75;;
25567;SDS011;13455;51.480;7.594;2023-05-07T02:06:25;7.50;;;4.70;;
25567;SDS011;13455;51.480;7.594;2023-05-07T02:08:50;6.60;;;4.70;;
25567;SDS011;13455;51.480;7.594;2023-05-07T02:11:16;7.77;;;4.67;;
25567;SDS011;13455;51.480;7.594;2023-05-07T02:13:42;6.17;;;4.60;;
25567;SDS011;13455;51.480;7.594;2023-05-07T02:16:07;8.82;;;4.47;;
25567;SDS011;13455;51.480;7.594;2023-05-07T02:18:33;7.97;;;4.40;;
25567;SDS011;13455;51.480;7.594;2023-05-07T02:20:59;6.35;;;4.13;;
25567;SDS011;13455;51.480;7.594;2023-05-07T02:23:24;5.93;;;3.80;;
25567;SDS011;13455;51.480;7.594;2023-05-07T02:25:50;8.07;;;3.80;;
25567;SDS011;13455;51.480;7.594;2023-05-07T02:28:16;5.10;;;3.70;;
25567;SDS011;13455;51.480;7.594;2023-05-07T02:30:41;5.67;;;3.40;;
25567;SDS011;13455;51.480;7.594;2023-05-07T02:33:07;3.97;;;3.25;;
25567;SDS011;13455;51.480;7.594;2023-05-07T02:35:37;5.30;;;3.20;;
25567;SDS011;13455;51.480;7.594;2023-05-07T02:38:03;5.30;;;3.25;;
25567;SDS011;13455;51.480;7.594;2023-05-07T02:40:28;4.45;;;2.90;;
25567;SDS011;13455;51.480;7.594;2023-05-07T02:42:54;6.93;;;3.10;;
25567;SDS011;13455;51.480;7.594;2023-05-07T02:45:20;6.60;;;2.93;;
25567;SDS011;13455;51.480;7.594;2023-05-07T02:47:45;5.83;;;2.90;;
25567;SDS011;13455;51.480;7.594;2023-05-07T02:50:11;5.20;;;2.93;;
25567;SDS011;13455;51.480;7.594;2023-05-07T02:52:37;6.20;;;3.20;;
25567;SDS011;13455;51.480;7.594;2023-05-07T02:55:02;6.63;;;3.20;;
25567;SDS011;13455;51.480;7.594;2023-05-07T02:57:28;4.65;;;3.03;;
25567;SDS011;13455;51.480;7.594;2023-05-07T02:59:54;6.93;;;3.50;;
25567;SDS011;13455;51.480;7.594;2023-05-07T03:02:20;5.30;;;3.70;;
25567;SDS011;13455;51.480;7.594;2023-05-07T03:04:45;6.67;;;3.70;;
25567;SDS011;13455;51.480;7.594;2023-05-07T03:07:11;6.13;;;3.80;;
25567;SDS011;13455;51.480;7.594;2023-05-07T03:09:36;6.37;;;3.77;;
25567;SDS011;13455;51.480;7.594;2023-05-07T03:12:02;8.30;;;3.97;;
25567;SDS011;13455;51.480;7.594;2023-05-07T03:14:28;5.60;;;3.90;;
25567;SDS011;13455;51.480;7.594;2023-05-07T03:16:53;7.40;;;4.10;;
25567;SDS011;13455;51.480;7.594;2023-05-07T03:19:19;5.67;;;3.80;;
25567;SDS011;13455;51.480;7.594;2023-05-07T03:21:45;6.40;;;4.07;;
25567;SDS011;13455;51.480;7.594;2023-05-07T03:24:10;5.70;;;3.87;;
25567;SDS011;13455;51.480;7.594;2023-05-07T03:26:36;7.55;;;4.00;;
25567;SDS011;13455;51.480;7.594;2023-05-07T03:29:01;5.93;;;4.30;;
25567;SDS011;13455;51.480;7.594;2023-05-07T03:31:27;7.60;;;4.30;;
25567;SDS011;13455;51.480;7.594;2023-05-07T03:33:53;7.03;;;4.70;;
25567;SDS011;13455;51.480;7.594;2023-05-07T03:36:20;6.93;;;4.53;;
25567;SDS011;13455;51.480;7.594;2023-05-07T03:38:47;6.90;;;4.60;;
25567;SDS011;13455;51.480;7.594;2023-05-07T03:41:13;6.65;;;4.60;;
25567;SDS011;13455;51.480;7.594;2023-05-07T03:43:39;5.97;;;4.80;;
25567;SDS011;13455;51.480;7.594;2023-05-07T03:46:05;6.83;;;5.07;;
25567;SDS011;13455;51.480;7.594;2023-05-07T03:48:30;7.25;;;5.00;;
25567;SDS011;13455;51.480;7.594;2023-05-07T03:50:57;7.80;;;5.20;;
25567;SDS011;13455;51.480;7.594;2023-05-07T03:53:23;8.85;;;5.30;;
25567;SDS011;13455;51.480;7.594;2023-05-07T03:55:48;9.45;;;5.50;;
25567;SDS011;13455;51.480;7.594;2023-05-07T03:58:14;6.93;;;4.95;;
25567;SDS011;13455;51.480;7.594;2023-05-07T04:00:40;7.90;;;5.07;;
25567;SDS011;13455;51.480;7.594;2023-05-07T04:03:06;7.57;;;5.50;;
25567;SDS011;13455;51.480;7.594;2023-05-07T04:05:32;9.70;;;5.75;;
25567;SDS011;13455;51.480;7.594;2023-05-07T04:07:58;8.57;;;5.80;;
25567;SDS011;13455;51.480;7.594;2023-05-07T04:10:24;9.90;;;5.95;;
25567;SDS011;13455;51.480;7.594;2023-05-07T04:12:50;9.05;;;6.22;;
25567;SDS011;13455;51.480;7.594;2023-05-07T04:15:16;8.13;;;6.20;;
25567;SDS011;13455;51.480;7.594;2023-05-07T04:17:42;9.38;;;6.25;;
25567;SDS011;13455;51.480;7.594;2023-05-07T04:20:13;8.20;;;5.97;;
25567;SDS011;13455;51.480;7.594;2023-05-07T04:22:40;7.82;;;6.40;;
25567;SDS011;13455;51.480;7.594;2023-05-07T04:25:06;8.30;;;6.13;;
25567;SDS011;13455;51.480;7.594;2023-05-07T04:27:34;8.47;;;6.20;;
25567;SDS011;13455;51.480;7.594;2023-05-07T04:30:00;7.68;;;5.90;;
25567;SDS011;13455;51.480;7.594;2023-05-07T04:32:27;8.23;;;5.50;;
25567;SDS011;13455;51.480;7.594;2023-05-07T04:34:54;8.55;;;5.10;;
25567;SDS011;13455;51.480;7.594;2023-05-07T04:37:20;7.93;;;5.37;;
25567;SDS011;13455;51.480;7.594;2023-05-07T04:39:46;7.90;;;5.00;;
25567;SDS011;13455;51.480;7.594;2023-05-07T04:42:15;7.47;;;5.00;;
25567;SDS011;13455;51.480;7.594;2023-05-07T04:44:41;6.20;;;4.30;;
25567;SDS011;13455;51.480;7.594;2023-05-07T04:47:08;5.73;;;4.20;;
25567;SDS011;13455;51.480;7.594;2023-05-07T04:49:34;5.80;;;4.13;;
25567;SDS011;13455;51.480;7.594;2023-05-07T04:52:00;6.50;;;3.90;;
25567;SDS011;13455;51.480;7.594;2023-05-07T04:54:26;7.05;;;3.80;;
25567;SDS011;13455;51.480;7.594;2023-05-07T04:56:51;6.55;;;3.83;;
25567;SDS011;13455;51.480;7.594;2023-05-07T04:59:17;4.53;;;3.40;;
25567;SDS011;13455;51.480;7.594;2023-05-07T05:01:43;5.80;;;3.53;;
25567;SDS011;13455;51.480;7.594;2023-05-07T05:04:08;5.53;;;3.20;;
25567;SDS011;13455;51.480;7.594;2023-05-07T05:06:35;4.28;;;2.90;;
25567;SDS011;13455;51.480;7.594;2023-05-07T05:09:00;6.10;;;2.70;;
25567;SDS011;13455;51.480;7.594;2023-05-07T05:11:26;4.53;;;2.63;;
25567;SDS011;13455;51.480;7.594;2023-05-07T05:13:52;4.50;;;2.57;;
25567;SDS011;13455;51.480;7.594;2023-05-07T05:16:17;4.90;;;2.50;;
25567;SDS011;13455;51.480;7.594;2023-05-07T05:18:43;3.50;;;2.60;;
25567;SDS011;13455;51.480;7.594;2023-05-07T05:21:08;4.85;;;2.53;;
25567;SDS011;13455;51.480;7.594;2023-05-07T05:23:34;4.07;;;2.80;;
25567;SDS011;13455;51.480;7.594;2023-05-07T05:26:00;4.63;;;2.80;;
25567;SDS011;13455;51.480;7.594;2023-05-07T05:28:25;4.83;;;2.60;;
25567;SDS011;13455;51.480;7.594;2023-05-07T05:30:52;3.60;;;2.80;;
25567;SDS011;13455;51.480;7.594;2023-05-07T05:33:18;5.20;;;2.78;;
25567;SDS011;13455;51.480;7.594;2023-05-07T05:35:43;4.15;;;2.63;;
25567;SDS011;13455;51.480;7.594;2023-05-07T05:38:09;5.22;;;2.88;;
25567;SDS011;13455;51.480;7.594;2023-05-07T05:40:35;4.00;;;2.90;;
25567;SDS011;13455;51.480;7.594;2023-05-07T05:43:01;4.20;;;2.80;;
25567;SDS011;13455;51.480;7.594;2023-05-07T05:45:26;5.00;;;2.70;;
25567;SDS011;13455;51.480;7.594;2023-05-07T05:47:52;5.55;;;2.90;;
25567;SDS011;13455;51.480;7.594;2023-05-07T05:50:17;4.53;;;2.58;;
25567;SDS011;13455;51.480;7.594;2023-05-07T05:52:43;4.47;;;2.50;;
25567;SDS011;13455;51.480;7.594;2023-05-07T05:55:09;4.37;;;2.50;;
25567;SDS011;13455;51.480;7.594;2023-05-07T05:57:34;5.83;;;3.00;;
25567;SDS011;13455;51.480;7.594;2023-05-07T06:00:01;4.32;;;3.35;;
25567;SDS011;13455;51.480;7.594;2023-05-07T06:02:27;5.13;;;2.85;;
25567;SDS011;13455;51.480;7.594;2023-05-07T06:04:53;3.23;;;2.60;;
25567;SDS011;13455;51.480;7.594;2023-05-07T06:07:19;6.35;;;2.78;;
25567;SDS011;13455;51.480;7.594;2023-05-07T06:09:44;4.82;;;2.60;;
25567;SDS011;13455;51.480;7.594;2023-05-07T06:12:10;4.30;;;2.50;;
25567;SDS011;13455;51.480;7.594;2023-05-07T06:14:36;4.43;;;2.50;;
25567;SDS011;13455;51.480;7.594;2023-05-07T06:17:01;7.60;;;2.90;;
25567;SDS011;13455;51.480;7.594;2023-05-07T06:19:27;4.50;;;2.70;;
25567;SDS011;13455;51.480;7.594;2023-05-07T06:21:53;4.47;;;2.60;;
25567;SDS011;13455;51.480;7.594;2023-05-07T06:24:19;3.63;;;2.60;;
25567;SDS011;13455;51.480;7.594;2023-05-07T06:26:44;3.55;;;2.60;;
25567;SDS011;13455;51.480;7.594;2023-05-07T06:29:10;3.22;;;2.40;;
25567;SDS011;13455;51.480;7.594;2023-05-07T06:31:35;4.77;;;2.53;;
25567;SDS011;13455;51.480;7.594;2023-05-07T06:34:01;3.90;;;2.50;;
25567;SDS011;13455;51.480;7.594;2023-05-07T06:36:27;4.40;;;2.47;;
25567;SDS011;13455;51.480;7.594;2023-05-07T06:38:53;4.40;;;2.50;;
25567;SDS011;13455;51.480;7.594;2023-05-07T06:41:19;6.43;;;2.47;;
25567;SDS011;13455;51.480;7.594;2023-05-07T06:43:45;6.32;;;2.30;;
25567;SDS011;13455;51.480;7.594;2023-05-07T06:46:11;5.03;;;2.37;;
25567;SDS011;13455;51.480;7.594;2023-05-07T06:48:36;5.53;;;2.47;;
25567;SDS011;13455;51.480;7.594;2023-05-07T06:51:02;4.30;;;2.33;;
25567;SDS011;13455;51.480;7.594;2023-05-07T06:53:28;6.07;;;2.60;;
25567;SDS011;13455;51.480;7.594;2023-05-07T06:55:55;4.95;;;2.40;;
25567;SDS011;13455;51.480;7.594;2023-05-07T06:58:21;5.47;;;2.40;;
25567;SDS011;13455;51.480;7.594;2023-05-07T07:00:47;4.90;;;2.60;;
25567;SDS011;13455;51.480;7.594;2023-05-07T07:03:12;4.70;;;2.40;;
25567;SDS011;13455;51.480;7.594;2023-05-07T07:05:39;3.90;;;2.20;;
25567;SDS011;13455;51.480;7.594;2023-05-07T07:08:06;4.07;;;2.38;;
25567;SDS011;13455;51.480;7.594;2023-05-07T07:10:31;4.33;;;2.23;;
25567;SDS011;13455;51.480;7.594;2023-05-07T07:12:57;4.78;;;2.47;;
25567;SDS011;13455;51.480;7.594;2023-05-07T07:15:23;5.60;;;2.10;;
25567;SDS011;13455;51.480;7.594;2023-05-07T07:17:50;4.50;;;2.20;;
25567;SDS011;13455;51.480;7.594;2023-05-07T07:20:16;6.32;;;2.10;;
25567;SDS011;13455;51.480;7.594;2023-05-07T07:22:42;4.68;;;2.13;;
25567;SDS011;13455;51.480;7.594;2023-05-07T07:25:08;4.95;;;2.30;;
25567;SDS011;13455;51.480;7.594;2023-05-07T07:27:35;6.07;;;2.20;;
25567;SDS011;13455;51.480;7.594;2023-05-07T07:30:01;3.10;;;2.30;;
25567;SDS011;13455;51.480;7.594;2023-05-07T07:32:27;3.43;;;2.10;;
25567;SDS011;13455;51.480;7.594;2023-05-07T07:34:53;4.73;;;2.20;;
25567;SDS011;13455;51.480;7.594;2023-05-07T07:37:18;3.60;;;2.10;;
25567;SDS011;13455;51.480;7.594;2023-05-07T07:39:44;4.82;;;2.22;;
25567;SDS011;13455;51.480;7.594;2023-05-07T07:42:10;4.72;;;2.00;;
25567;SDS011;13455;51.480;7.594;2023-05-07T07:44:36;4.43;;;2.03;;
25567;SDS011;13455;51.480;7.594;2023-05-07T07:47:01;4.73;;;2.10;;
25567;SDS011;13455;51.480;7.594;2023-05-07T07:49:27;4.32;;;2.03;;
25567;SDS011;13455;51.480;7.594;2023-05-07T07:51:52;5.40;;;3.43;;
25567;SDS011;13455;51.480;7.594;2023-05-07T07:54:18;4.30;;;3.00;;
25567;SDS011;13455;51.480;7.594;2023-05-07T07:56:44;8.43;;;4.78;;
25567;SDS011;13455;51.480;7.594;2023-05-07T07:59:09;5.93;;;4.57;;
25567;SDS011;13455;51.480;7.594;2023-05-07T08:01:35;8.73;;;4.90;;
25567;SDS011;13455;51.480;7.594;2023-05-07T08:04:01;6.13;;;4.60;;
25567;SDS011;13455;51.480;7.594;2023-05-07T08:06:28;9.05;;;5.00;;
25567;SDS011;13455;51.480;7.594;2023-05-07T08:08:54;7.68;;;5.28;;
25567;SDS011;13455;51.480;7.594;2023-05-07T08:11:20;7.63;;;5.03;;
25567;SDS011;13455;51.480;7.594;2023-05-07T08:13:46;9.40;;;5.30;;
25567;SDS011;13455;51.480;7.594;2023-05-07T08:16:12;8.27;;;5.43;;
25567;SDS011;13455;51.480;7.594;2023-05-07T08:18:38;8.50;;;5.97;;
25567;SDS011;13455;51.480;7.594;2023-05-07T08:21:04;9.57;;;6.17;;
25567;SDS011;13455;51.480;7.594;2023-05-07T08:23:29;9.03;;;6.10;;
25567;SDS011;13455;51.480;7.594;2023-05-07T08:25:55;7.60;;;6.50;;
25567;SDS011;13455;51.480;7.594;2023-05-07T08:28:21;7.68;;;6.30;;
25567;SDS011;13455;51.480;7.594;2023-05-07T08:30:46;7.70;;;6.60;;
25567;SDS011;13455;51.480;7.594;2023-05-07T08:33:12;8.70;;;6.50;;
25567;SDS011;13455;51.480;7.594;2023-05-07T08:35:38;9.27;;;7.07;;
25567;SDS011;13455;51.480;7.594;2023-05-07T08:38:04;9.77;;;6.93;;
25567;SDS011;13455;51.480;7.594;2023-05-07T08:40:29;12.17;;;7.63;;
25567;SDS011;13455;51.480;7.594;2023-05-07T08:42:59;13.03;;;8.20;;
25567;SDS011;13455;51.480;7.594;2023-05-07T08:45:25;9.90;;;7.43;;
25567;SDS011;13455;51.480;7.594;2023-05-07T08:47:55;9.57;;;7.80;;
25567;SDS011;13455;51.480;7.594;2023-05-07T08:50:24;10.63;;;8.00;;
25567;SDS011;13455;51.480;7.594;2023-05-07T08:52:51;8.70;;;7.80;;
25567;SDS011;13455;51.480;7.594;2023-05-07T08:55:16;10.27;;;7.37;;
25567;SDS011;13455;51.480;7.594;2023-05-07T08:57:43;10.95;;;8.25;;
25567;SDS011;13455;51.480;7.594;2023-05-07T09:00:09;10.23;;;8.30;;
25567;SDS011;13455;51.480;7.594;2023-05-07T09:02:35;10.40;;;7.72;;
25567;SDS011;13455;51.480;7.594;2023-05-07T09:05:01;8.93;;;7.80;;
25567;SDS011;13455;51.480;7.594;2023-05-07T09:07:27;9.52;;;8.13;;
25567;SDS011;13455;51.480;7.594;2023-05-07T09:09:52;8.70;;;7.70;;
25567;SDS011;13455;51.480;7.594;2023-05-07T09:12:20;11.57;;;8.50;;
25567;SDS011;13455;51.480;7.594;2023-05-07T09:14:46;11.43;;;8.00;;
25567;SDS011;13455;51.480;7.594;2023-05-07T09:17:12;10.30;;;8.57;;
25567;SDS011;13455;51.480;7.594;2023-05-07T09:19:40;9.73;;;7.93;;
25567;SDS011;13455;51.480;7.594;2023-05-07T09:22:05;9.97;;;7.67;;
25567;SDS011;13455;51.480;7.594;2023-05-07T09:24:34;9.70;;;7.78;;
25567;SDS011;13455;51.480;7.594;2023-05-07T09:27:02;10.32;;;8.05;;
25567;SDS011;13455;51.480;7.594;2023-05-07T09:29:29;10.48;;;9.18;;
25567;SDS011;13455;51.480;7.594;2023-05-07T09:31:55;10.90;;;9.40;;
25567;SDS011;13455;51.480;7.594;2023-05-07T09:34:21;11.37;;;8.87;;
25567;SDS011;13455;51.480;7.594;2023-05-07T09:36:47;11.47;;;9.27;;
25567;SDS011;13455;51.480;7.594;2023-05-07T09:39:13;11.85;;;9.15;;
25567;SDS011;13455;51.480;7.594;2023-05-07T09:41:45;10.23;;;8.80;;
25567;SDS011;13455;51.480;7.594;2023-05-07T09:44:12;13.60;;;9.48;;
25567;SDS011;13455;51.480;7.594;2023-05-07T09:46:44;12.07;;;9.60;;
25567;SDS011;13455;51.480;7.594;2023-05-07T09:49:19;10.27;;;8.87;;
25567;SDS011;13455;51.480;7.594;2023-05-07T09:51:48;11.30;;;8.80;;
25567;SDS011;13455;51.480;7.594;2023-05-07T09:54:15;10.55;;;7.90;;
25567;SDS011;13455;51.480;7.594;2023-05-07T09:56:42;7.87;;;6.80;;
25567;SDS011;13455;51.480;7.594;2023-05-07T09:59:13;8.93;;;6.68;;
25567;SDS011;13455;51.480;7.594;2023-05-07T10:01:41;8.93;;;7.65;;
25567;SDS011;13455;51.480;7.594;2023-05-07T10:04:07;9.05;;;7.88;;
25567;SDS011;13455;51.480;7.594;2023-05-07T10:06:34;10.02;;;8.13;;
25567;SDS011;13455;51.480;7.594;2023-05-07T10:09:01;11.88;;;9.10;;
25567;SDS011;13455;51.480;7.594;2023-05-07T10:11:27;10.80;;;9.70;;
25567;SDS011;13455;51.480;7.594;2023-05-07T10:13:53;12.45;;;10.13;;
25567;SDS011;13455;51.480;7.594;2023-05-07T10:16:20;13.40;;;10.43;;
25567;SDS011;13455;51.480;7.594;2023-05-07T10:18:46;13.05;;;9.57;;
25567;SDS011;13455;51.480;7.594;2023-05-07T10:21:16;10.18;;;8.57;;
25567;SDS011;13455;51.480;7.594;2023-05-07T10:23:49;13.20;;;8.90;;
25567;SDS011;13455;51.480;7.594;2023-05-07T10:26:45;11.98;;;8.95;;
25567;SDS011;13455;51.480;7.594;2023-05-07T10:29:16;11.45;;;9.73;;
25567;SDS011;13455;51.480;7.594;2023-05-07T10:34:26;12.63;;;10.00;;
25567;SDS011;13455;51.480;7.594;2023-05-07T10:36:57;12.35;;;9.35;;
25567;SDS011;13455;51.480;7.594;2023-05-07T10:39:23;12.40;;;9.55;;
25567;SDS011;13455;51.480;7.594;2023-05-07T10:41:49;10.55;;;8.40;;
25567;SDS011;13455;51.480;7.594;2023-05-07T10:44:27;10.77;;;8.47;;
25567;SDS011;13455;51.480;7.594;2023-05-07T10:47:15;10.15;;;7.53;;
25567;SDS011;13455;51.480;7.594;2023-05-07T10:52:20;9.13;;;7.53;;
25567;SDS011;13455;51.480;7.594;2023-05-07T10:54:48;8.77;;;7.68;;
25567;SDS011;13455;51.480;7.594;2023-05-07T10:57:43;9.27;;;7.97;;
25567;SDS011;13455;51.480;7.594;2023-05-07T11:05:24;9.07;;;8.05;;
25567;SDS011;13455;51.480;7.594;2023-05-07T11:07:56;9.60;;;7.80;;
25567;SDS011;13455;51.480;7.594;2023-05-07T11:10:23;6.85;;;5.97;;
25567;SDS011;13455;51.480;7.594;2023-05-07T11:13:08;9.53;;;6.93;;
25567;SDS011;13455;51.480;7.594;2023-05-07T11:15:35;9.70;;;7.45;;
25567;SDS011;13455;51.480;7.594;2023-05-07T11:18:03;10.85;;;8.85;;
25567;SDS011;13455;51.480;7.594;2023-05-07T11:26:07;10.27;;;7.25;;
25567;SDS011;13455;51.480;7.594;2023-05-07T11:28:37;12.50;;;9.40;;
25567;SDS011;13455;51.480;7.594;2023-05-07T11:31:07;10.48;;;8.70;;
25567;SDS011;13455;51.480;7.594;2023-05-07T11:33:34;14.38;;;8.68;;
25567;SDS011;13455;51.480;7.594;2023-05-07T11:36:02;9.73;;;8.10;;
25567;SDS011;13455;51.480;7.594;2023-05-07T11:38:38;11.20;;;8.73;;
25567;SDS011;13455;51.480;7.594;2023-05-07T11:41:03;9.50;;;8.07;;
25567;SDS011;13455;51.480;7.594;2023-05-07T11:43:30;10.52;;;7.53;;
25567;SDS011;13455;51.480;7.594;2023-05-07T11:46:10;11.05;;;8.40;;
25567;SDS011;13455;51.480;7.594;2023-05-07T11:48:36;11.45;;;8.35;;
25567;SDS011;13455;51.480;7.594;2023-05-07T11:51:04;9.57;;;7.30;;
25567;SDS011;13455;51.480;7.594;2023-05-07T11:53:41;7.95;;;7.00;;
25567;SDS011;13455;51.480;7.594;2023-05-07T11:56:08;8.70;;;6.78;;
25567;SDS011;13455;51.480;7.594;2023-05-07T11:58:34;7.97;;;6.43;;
25567;SDS011;13455;51.480;7.594;2023-05-07T12:01:01;7.18;;;6.25;;
25567;SDS011;13455;51.480;7.594;2023-05-07T12:03:27;7.75;;;6.78;;
25567;SDS011;13455;51.480;7.594;2023-05-07T12:05:53;9.43;;;7.50;;
25567;SDS011;13455;51.480;7.594;2023-05-07T12:08:20;9.60;;;7.43;;
25567;SDS011;13455;51.480;7.594;2023-05-07T12:10:46;9.07;;;7.85;;
25567;SDS011;13455;51.480;7.594;2023-05-07T12:13:23;9.60;;;7.97;;
25567;SDS011;13455;51.480;7.594;2023-05-07T12:15:53;9.43;;;7.78;;
25567;SDS011;13455;51.480;7.594;2023-05-07T12:18:19;9.50;;;7.72;;
25567;SDS011;13455;51.480;7.594;2023-05-07T12:20:46;10.95;;;8.10;;
25567;SDS011;13455;51.480;7.594;2023-05-07T12:23:12;10.15;;;7.88;;
25567;SDS011;13455;51.480;7.594;2023-05-07T12:25:38;8.48;;;7.50;;
25567;SDS011;13455;51.480;7.594;2023-05-07T12:28:07;10.10;;;7.63;;
25567;SDS011;13455;51.480;7.594;2023-05-07T12:30:39;8.90;;;7.18;;
25567;SDS011;13455;51.480;7.594;2023-05-07T12:33:05;7.88;;;6.03;;
25567;SDS011;13455;51.480;7.594;2023-05-07T12:35:32;9.23;;;7.10;;
25567;SDS011;13455;51.480;7.594;2023-05-07T12:38:04;9.57;;;6.87;;
25567;SDS011;13455;51.480;7.594;2023-05-07T12:40:49;9.65;;;6.30;;
25567;SDS011;13455;51.480;7.594;2023-05-07T12:43:17;9.98;;;7.30;;
25567;SDS011;13455;51.480;7.594;2023-05-07T12:45:46;7.50;;;6.68;;
25567;SDS011;13455;51.480;7.594;2023-05-07T12:48:14;7.68;;;6.20;;
25567;SDS011;13455;51.480;7.594;2023-05-07T12:50:40;7.33;;;5.70;;
25567;SDS011;13455;51.480;7.594;2023-05-07T12:53:06;8.80;;;5.18;;
25567;SDS011;13455;51.480;7.594;2023-05-07T12:55:46;6.50;;;5.10;;
25567;SDS011;13455;51.480;7.594;2023-05-07T12:58:16;7.10;;;5.40;;
25567;SDS011;13455;51.480;7.594;2023-05-07T13:00:43;6.55;;;5.10;;
25567;SDS011;13455;51.480;7.594;2023-05-07T13:03:10;8.30;;;5.10;;
25567;SDS011;13455;51.480;7.594;2023-05-07T13:05:36;7.40;;;5.20;;
25567;SDS011;13455;51.480;7.594;2023-05-07T13:08:02;7.63;;;5.57;;
25567;SDS011;13455;51.480;7.594;2023-05-07T13:10:27;7.40;;;5.87;;
25567;SDS011;13455;51.480;7.594;2023-05-07T13:12:53;7.20;;;5.63;;
25567;SDS011;13455;51.480;7.594;2023-05-07T13:15:19;6.70;;;5.30;;
25567;SDS011;13455;51.480;7.594;2023-05-07T13:17:46;8.25;;;5.30;;
25567;SDS011;13455;51.480;7.594;2023-05-07T13:20:12;6.97;;;5.57;;
25567;SDS011;13455;51.480;7.594;2023-05-07T13:22:38;7.50;;;5.43;;
25567;SDS011;13455;51.480;7.594;2023-05-07T13:25:04;7.88;;;5.75;;
25567;SDS011;13455;51.480;7.594;2023-05-07T13:27:30;6.88;;;5.03;;
25567;SDS011;13455;51.480;7.594;2023-05-07T13:29:56;8.50;;;6.03;;
25567;SDS011;13455;51.480;7.594;2023-05-07T13:32:22;10.50;;;6.30;;
25567;SDS011;13455;51.480;7.594;2023-05-07T13:34:48;7.45;;;5.70;;
25567;SDS011;13455;51.480;7.594;2023-05-07T13:37:14;8.33;;;5.80;;
25567;SDS011;13455;51.480;7.594;2023-05-07T13:39:39;6.93;;;5.95;;
25567;SDS011;13455;51.480;7.594;2023-05-07T13:42:06;8.00;;;5.80;;
25567;SDS011;13455;51.480;7.594;2023-05-07T13:44:31;7.55;;;5.80;;
25567;SDS011;13455;51.480;7.594;2023-05-07T13:46:57;8.47;;;6.37;;
25567;SDS011;13455;51.480;7.594;2023-05-07T13:49:23;9.10;;;6.57;;
25567;SDS011;13455;51.480;7.594;2023-05-07T13:51:49;7.70;;;6.10;;
25567;SDS011;13455;51.480;7.594;2023-05-07T13:54:14;8.30;;;6.00;;
25567;SDS011;13455;51.480;7.594;2023-05-07T13:56:40;8.45;;;6.47;;
25567;SDS011;13455;51.480;7.594;2023-05-07T13:59:06;9.05;;;6.85;;
25567;SDS011;13455;51.480;7.594;2023-05-07T14:01:32;10.07;;;6.70;;
25567;SDS011;13455;51.480;7.594;2023-05-07T14:03:58;9.43;;;6.70;;
25567;SDS011;13455;51.480;7.594;2023-05-07T14:06:24;10.07;;;6.80;;
25567;SDS011;13455;51.480;7.594;2023-05-07T14:08:50;6.60;;;5.47;;
25567;SDS011;13455;51.480;7.594;2023-05-07T14:11:15;8.45;;;5.70;;
25567;SDS011;13455;51.480;7.594;2023-05-07T14:13:41;7.97;;;5.60;;
25567;SDS011;13455;51.480;7.594;2023-05-07T14:16:07;5.95;;;5.35;;
25567;SDS011;13455;51.480;7.594;2023-05-07T14:18:32;7.60;;;5.13;;
25567;SDS011;13455;51.480;7.594;2023-05-07T14:20:59;5.90;;;4.70;;
25567;SDS011;13455;51.480;7.594;2023-05-07T14:23:25;8.17;;;4.77;;
25567;SDS011;13455;51.480;7.594;2023-05-07T14:25:52;5.45;;;4.57;;
25567;SDS011;13455;51.480;7.594;2023-05-07T14:28:18;7.07;;;4.40;;
25567;SDS011;13455;51.480;7.594;2023-05-07T14:30:44;6.60;;;4.60;;
25567;SDS011;13455;51.480;7.594;2023-05-07T14:33:09;6.93;;;4.90;;
25567;SDS011;13455;51.480;7.594;2023-05-07T14:35:35;7.50;;;4.47;;
25567;SDS011;13455;51.480;7.594;2023-05-07T14:38:01;6.60;;;4.60;;
25567;SDS011;13455;51.480;7.594;2023-05-07T14:40:26;5.27;;;4.00;;
25567;SDS011;13455;51.480;7.594;2023-05-07T14:42:52;6.68;;;3.75;;
25567;SDS011;13455;51.480;7.594;2023-05-07T14:45:18;6.72;;;4.10;;
25567;SDS011;13455;51.480;7.594;2023-05-07T14:47:43;5.23;;;3.80;;
25567;SDS011;13455;51.480;7.594;2023-05-07T14:50:09;5.88;;;3.83;;
25567;SDS011;13455;51.480;7.594;2023-05-07T14:52:35;5.45;;;3.88;;
25567;SDS011;13455;51.480;7.594;2023-05-07T14:55:01;5.10;;;3.70;;
25567;SDS011;13455;51.480;7.594;2023-05-07T14:57:26;5.10;;;3.40;;
25567;SDS011;13455;51.480;7.594;2023-05-07T14:59:52;5.72;;;3.38;;